createdAt,value
2019-03-12T00:02:12.714Z,1.90
2019-03-12T00:04:50.456Z,3.63
2019-03-12T00:07:27.823Z,2.70
2019-03-12T00:10:11.935Z,2.07
2019-03-12T00:12:51.549Z,2.67
2019-03-12T00:15:29.223Z,2.40
2019-03-12T00:21:06.380Z,3.57
2019-03-12T00:23:54.615Z,1.00
2019-03-12T00:26:34.660Z,2.73
2019-03-12T00:29:13.171Z,2.53
2019-03-12T00:31:55.525Z,2.23
2019-03-12T00:34:38.016Z,2.00
2019-03-12T00:37:19.521Z,2.97
2019-03-12T00:39:56.344Z,3.57
2019-03-12T00:42:55.570Z,2.53
2019-03-12T00:45:32.362Z,2.93
2019-03-12T00:48:12.554Z,2.37
2019-03-12T00:50:50.515Z,2.87
2019-03-12T00:53:34.347Z,2.53
2019-03-12T00:56:14.246Z,3.83
2019-03-12T00:58:51.640Z,1.60
2019-03-12T01:01:28.337Z,2.80
2019-03-12T01:04:09.846Z,2.60
2019-03-12T01:06:53.896Z,1.27
2019-03-12T01:09:28.882Z,1.40
2019-03-12T01:12:06.038Z,1.47
2019-03-12T01:14:54.364Z,1.50
2019-03-12T01:17:40.255Z,1.03
2019-03-12T01:20:21.179Z,1.90
2019-03-12T01:22:55.586Z,1.87
2019-03-12T01:25:32.819Z,1.80
2019-03-12T01:28:12.503Z,2.07
2019-03-12T01:30:49.320Z,3.87
2019-03-12T01:33:28.647Z,2.20
2019-03-12T01:36:07.667Z,2.00
2019-03-12T01:38:44.659Z,2.10
2019-03-12T01:41:19.693Z,2.97
2019-03-12T01:44:00.835Z,2.27
2019-03-12T01:46:41.110Z,1.93
2019-03-12T01:49:25.227Z,4.43
2019-03-12T01:52:02.964Z,2.13
2019-03-12T01:54:38.059Z,2.33
2019-03-12T01:57:19.791Z,3.63
2019-03-12T01:59:57.078Z,3.57
2019-03-12T02:02:39.350Z,3.33
2019-03-12T02:05:14.800Z,3.77
2019-03-12T02:07:52.763Z,1.57
2019-03-12T02:10:30.906Z,2.17
2019-03-12T02:13:24.992Z,2.10
2019-03-12T02:16:02.409Z,4.57
2019-03-12T02:18:42.199Z,4.70
2019-03-12T02:21:24.303Z,2.87
2019-03-12T02:24:01.151Z,6.77
2019-03-12T02:26:36.506Z,3.10
2019-03-12T02:29:11.335Z,2.40
2019-03-12T02:31:46.426Z,3.57
2019-03-12T02:34:23.355Z,2.67
2019-03-12T02:37:01.481Z,4.87
2019-03-12T02:39:39.700Z,3.73
2019-03-12T02:42:21.293Z,3.27
2019-03-12T02:44:55.815Z,4.90
2019-03-12T02:47:32.907Z,3.03
2019-03-12T02:50:11.570Z,4.00
2019-03-12T02:52:50.839Z,3.97
2019-03-12T02:55:28.417Z,5.50
2019-03-12T02:58:09.535Z,5.60
2019-03-12T03:00:46.885Z,3.03
2019-03-12T03:03:21.403Z,5.27
2019-03-12T03:06:19.599Z,5.03
2019-03-12T03:08:54.126Z,2.40
2019-03-12T03:11:28.471Z,3.50
2019-03-12T03:14:07.691Z,4.70
2019-03-12T03:16:46.953Z,5.37
2019-03-12T03:19:24.578Z,4.07
2019-03-12T03:22:03.593Z,4.40
2019-03-12T03:24:45.641Z,5.10
2019-03-12T03:27:29.247Z,4.33
2019-03-12T03:33:20.713Z,3.07
2019-03-12T03:35:59.140Z,6.40
2019-03-12T03:38:36.607Z,5.93
2019-03-12T03:41:16.417Z,5.57
2019-03-12T03:43:51.175Z,3.33
2019-03-12T03:46:28.450Z,3.70
2019-03-12T03:49:03.432Z,3.80
2019-03-12T03:51:53.881Z,3.87
2019-03-12T03:54:35.646Z,5.90
2019-03-12T03:57:20.534Z,4.17
2019-03-12T03:59:57.308Z,4.07
2019-03-12T04:02:34.568Z,4.17
2019-03-12T04:05:09.079Z,4.13
2019-03-12T04:07:48.049Z,2.70
2019-03-12T04:10:23.119Z,3.67
2019-03-12T04:12:57.382Z,4.57
2019-03-12T04:15:32.789Z,5.83
2019-03-12T04:18:12.020Z,4.83
2019-03-12T04:20:51.286Z,3.80
2019-03-12T04:23:27.375Z,3.57
2019-03-12T04:26:04.514Z,5.17
2019-03-12T04:28:38.408Z,6.17
2019-03-12T04:31:12.570Z,4.80
2019-03-12T04:34:26.651Z,5.63
2019-03-12T04:37:01.954Z,3.77
2019-03-12T04:39:35.945Z,3.23
2019-03-12T04:42:11.229Z,3.23
2019-03-12T04:44:48.401Z,2.97
2019-03-12T04:47:24.041Z,4.13
2019-03-12T04:50:01.420Z,2.73
2019-03-12T04:52:36.466Z,5.23
2019-03-12T04:55:11.752Z,4.97
2019-03-12T04:57:52.942Z,5.00
2019-03-12T05:00:29.632Z,3.40
2019-03-12T05:03:07.263Z,3.70
2019-03-12T05:05:43.777Z,3.77
2019-03-12T05:08:23.230Z,3.60
2019-03-12T05:10:58.362Z,5.53
2019-03-12T05:13:34.918Z,5.07
2019-03-12T05:16:09.168Z,4.40
2019-03-12T05:18:47.744Z,2.93
2019-03-12T05:21:24.741Z,4.40
2019-03-12T05:24:00.584Z,4.50
2019-03-12T05:26:38.005Z,5.57
2019-03-12T05:29:17.128Z,3.53
2019-03-12T05:31:56.646Z,6.07
2019-03-12T05:34:31.344Z,3.50
2019-03-12T05:37:05.656Z,2.93
2019-03-12T05:39:42.643Z,4.37
2019-03-12T05:42:18.678Z,4.83
2019-03-12T05:44:54.621Z,3.87
2019-03-12T05:47:31.079Z,4.87
2019-03-12T05:50:05.629Z,4.07
2019-03-12T05:52:41.956Z,3.80
2019-03-12T05:55:19.615Z,3.70
2019-03-12T05:57:55.328Z,4.97
2019-03-12T06:00:33.669Z,5.87
2019-03-12T06:03:11.222Z,4.43
2019-03-12T06:05:45.853Z,5.63
2019-03-12T06:08:22.213Z,5.17
2019-03-12T06:11:00.915Z,4.10
2019-03-12T06:13:39.506Z,5.53
2019-03-12T06:16:15.091Z,6.57
2019-03-12T06:18:51.789Z,3.40
2019-03-12T06:21:28.182Z,4.70
2019-03-12T06:24:06.750Z,4.53
2019-03-12T06:26:42.443Z,5.77
2019-03-12T06:29:18.510Z,4.23
2019-03-12T06:32:14.963Z,5.97
2019-03-12T06:35:01.778Z,7.10
2019-03-12T06:37:56.132Z,5.43
2019-03-12T06:40:44.417Z,3.27
2019-03-12T06:43:44.273Z,3.20
2019-03-12T06:46:37.288Z,3.93
2019-03-12T06:49:20.140Z,4.57
2019-03-12T06:52:18.556Z,8.70
2019-03-12T06:55:15.207Z,4.67
2019-03-12T06:58:34.912Z,5.27
2019-03-12T07:01:27.535Z,3.13
2019-03-12T07:04:24.255Z,4.60
2019-03-12T07:07:30.415Z,3.33
2019-03-12T07:10:23.276Z,4.77
2019-03-12T07:13:14.326Z,5.27
2019-03-12T07:15:56.934Z,2.87
2019-03-12T07:18:48.396Z,2.10
2019-03-12T07:21:44.595Z,2.50
2019-03-12T07:24:35.545Z,3.60
2019-03-12T07:27:43.474Z,3.03
2019-03-12T07:30:55.025Z,2.93
2019-03-12T07:33:58.907Z,2.70
2019-03-12T07:36:42.144Z,2.40
2019-03-12T07:39:40.506Z,3.87
2019-03-12T07:42:31.933Z,2.47
2019-03-12T07:45:16.444Z,2.90
2019-03-12T07:48:32.352Z,1.83
2019-03-12T07:51:32.252Z,2.30
2019-03-12T07:54:22.743Z,2.67
2019-03-12T07:57:18.774Z,17.87
2019-03-12T08:00:06.069Z,5.10
2019-03-12T08:03:14.868Z,2.67
2019-03-12T08:06:19.974Z,3.13
2019-03-12T08:09:20.447Z,2.57
2019-03-12T08:12:24.844Z,4.87
2019-03-12T08:15:25.404Z,3.33
2019-03-12T08:18:30.933Z,2.30
2019-03-12T08:21:39.788Z,5.23
2019-03-12T08:24:27.171Z,6.83
2019-03-12T08:27:22.413Z,2.87
2019-03-12T08:30:22.461Z,3.00
2019-03-12T08:33:17.057Z,4.73
2019-03-12T08:36:36.609Z,3.97
2019-03-12T08:39:21.892Z,1.90
2019-03-12T08:42:15.780Z,1.87
2019-03-12T08:45:11.298Z,3.50
2019-03-12T08:48:05.359Z,3.13
2019-03-12T08:50:54.634Z,1.27
2019-03-12T08:53:46.802Z,2.43
2019-03-12T08:57:01.500Z,1.23
2019-03-12T08:59:49.815Z,1.73
2019-03-12T09:02:50.105Z,1.03
2019-03-12T09:05:56.071Z,1.97
2019-03-12T09:08:57.886Z,1.30
2019-03-12T09:12:05.502Z,1.60
2019-03-12T09:14:54.845Z,1.37
2019-03-12T09:18:00.412Z,1.57
2019-03-12T09:21:18.465Z,0.93
2019-03-12T09:24:23.197Z,0.90
2019-03-12T09:27:14.819Z,2.83
2019-03-12T09:30:09.337Z,1.37
2019-03-12T09:33:04.824Z,1.00
2019-03-12T09:35:58.722Z,1.97
2019-03-12T09:38:55.465Z,1.60
2019-03-12T09:41:48.920Z,1.10
2019-03-12T09:44:49.172Z,1.73
2019-03-12T09:47:35.647Z,1.37
2019-03-12T09:50:21.927Z,1.60
2019-03-12T09:53:06.674Z,2.37
2019-03-12T09:55:58.875Z,0.70
2019-03-12T09:58:50.298Z,1.10
2019-03-12T10:01:50.487Z,1.37
2019-03-12T10:04:40.642Z,2.10
2019-03-12T10:07:39.974Z,1.63
2019-03-12T10:10:39.704Z,3.43
2019-03-12T10:13:29.152Z,1.47
2019-03-12T10:16:19.963Z,1.57
2019-03-12T10:19:25.605Z,1.47
2019-03-12T10:22:22.375Z,1.10
2019-03-12T10:25:24.063Z,1.00
2019-03-12T10:28:18.562Z,0.90
2019-03-12T10:31:06.462Z,4.37
2019-03-12T10:33:54.973Z,3.23
2019-03-12T10:36:48.754Z,0.57
2019-03-12T10:40:20.425Z,1.37
2019-03-12T10:43:18.528Z,2.23
2019-03-12T10:46:13.106Z,3.90
2019-03-12T10:48:49.356Z,2.50
2019-03-12T10:51:26.519Z,3.87
2019-03-12T10:54:02.659Z,1.10
2019-03-12T10:56:37.337Z,2.23
2019-03-12T10:59:11.381Z,1.83
2019-03-12T11:01:48.358Z,1.90
2019-03-12T11:04:23.046Z,1.40
2019-03-12T11:07:15.512Z,3.70
2019-03-12T11:09:37.984Z,1.20
2019-03-12T11:12:15.405Z,2.07
2019-03-12T11:14:52.281Z,1.30
2019-03-12T11:17:26.592Z,0.93
2019-03-12T11:20:02.020Z,1.17
2019-03-12T11:22:38.510Z,2.90
2019-03-12T11:25:25.877Z,0.40
2019-03-12T11:27:50.680Z,1.90
2019-03-12T11:30:29.897Z,0.60
2019-03-12T11:33:05.111Z,0.20
2019-03-12T11:35:47.774Z,0.30
2019-03-12T11:38:22.429Z,0.93
2019-03-12T11:40:56.663Z,0.20
2019-03-12T11:43:34.068Z,0.30
2019-03-12T11:46:11.369Z,0.30
2019-03-12T11:48:46.673Z,0.40
2019-03-12T11:51:21.598Z,0.40
2019-03-12T11:53:56.570Z,1.17
2019-03-12T11:56:31.811Z,0.90
2019-03-12T11:59:06.600Z,0.40
2019-03-12T12:01:41.067Z,0.40
2019-03-12T12:04:16.583Z,0.40
2019-03-12T12:06:50.415Z,0.50
2019-03-12T12:09:25.785Z,1.03
2019-03-12T12:12:01.771Z,1.37
2019-03-12T12:14:39.964Z,1.97
2019-03-12T12:17:22.272Z,0.63
2019-03-12T12:19:59.397Z,1.73
2019-03-12T12:22:35.031Z,2.57
2019-03-12T12:25:12.496Z,0.40
2019-03-12T12:27:46.745Z,0.70
2019-03-12T12:30:24.341Z,1.43
2019-03-12T12:33:00.048Z,0.30
2019-03-12T12:35:34.172Z,1.37
2019-03-12T12:38:10.003Z,0.83
2019-03-12T12:40:45.965Z,1.83
2019-03-12T12:43:20.931Z,0.53
2019-03-12T12:45:56.179Z,1.93
2019-03-12T12:48:31.808Z,0.40
2019-03-12T12:51:07.884Z,0.87
2019-03-12T12:53:41.774Z,1.07
2019-03-12T12:56:15.994Z,1.40
2019-03-12T12:58:49.666Z,2.70
2019-03-12T13:01:26.066Z,0.90
2019-03-12T13:04:01.955Z,0.67
2019-03-12T13:06:36.903Z,2.00
2019-03-12T13:09:12.725Z,0.73
2019-03-12T13:11:48.527Z,1.77
2019-03-12T13:14:24.210Z,1.30
2019-03-12T13:17:00.084Z,2.07
2019-03-12T13:19:35.177Z,0.90
2019-03-12T13:22:11.189Z,1.50
2019-03-12T13:24:46.668Z,2.00
2019-03-12T13:27:23.118Z,1.67
2019-03-12T13:29:57.832Z,2.87
2019-03-12T13:32:32.259Z,2.27
2019-03-12T13:35:15.812Z,2.13
2019-03-12T13:37:51.010Z,1.47
2019-03-12T13:40:28.450Z,1.80
2019-03-12T13:43:06.053Z,1.93
2019-03-12T13:45:42.259Z,3.10
2019-03-12T13:48:19.384Z,1.83
2019-03-12T13:50:54.108Z,2.03
2019-03-12T13:53:29.240Z,2.17
2019-03-12T13:56:05.271Z,2.20
2019-03-12T13:58:41.791Z,2.10
2019-03-12T14:01:16.469Z,1.63
2019-03-12T14:03:51.186Z,2.20
2019-03-12T14:06:27.840Z,3.17
2019-03-12T14:09:08.597Z,3.00
2019-03-12T14:11:46.529Z,4.77
2019-03-12T14:14:21.578Z,8.47
2019-03-12T14:16:59.131Z,5.93
2019-03-12T14:19:35.543Z,7.83
2019-03-12T14:22:12.596Z,8.57
2019-03-12T14:24:46.772Z,7.50
2019-03-12T14:27:21.104Z,9.13
2019-03-12T14:29:57.097Z,7.53
2019-03-12T14:32:33.185Z,8.47
2019-03-12T14:35:13.054Z,10.23
2019-03-12T14:37:51.046Z,9.57
2019-03-12T14:40:28.073Z,9.57
2019-03-12T14:43:07.033Z,11.50
2019-03-12T14:45:45.158Z,11.47
2019-03-12T14:48:44.646Z,10.23
2019-03-12T14:51:47.959Z,10.47
2019-03-12T14:54:23.655Z,11.23
2019-03-12T14:57:01.894Z,10.37
2019-03-12T14:59:40.390Z,9.53
2019-03-12T15:02:16.393Z,8.40
2019-03-12T15:04:52.833Z,7.87
2019-03-12T15:07:27.049Z,8.47
2019-03-12T15:10:03.390Z,8.27
2019-03-12T15:12:39.294Z,6.43
2019-03-12T15:15:26.682Z,8.47
2019-03-12T15:18:02.627Z,5.47
2019-03-12T15:20:43.481Z,6.17
2019-03-12T15:23:26.139Z,7.67
2019-03-12T15:26:02.320Z,7.03
2019-03-12T15:28:37.906Z,6.27
2019-03-12T15:31:13.463Z,7.10
2019-03-12T15:33:48.685Z,7.17
2019-03-12T15:36:24.443Z,10.60
2019-03-12T15:39:06.345Z,9.17
2019-03-12T15:41:44.444Z,12.67
2019-03-12T15:44:22.440Z,10.97
2019-03-12T15:47:03.878Z,10.87
2019-03-12T15:49:43.037Z,11.77
2019-03-12T15:52:16.965Z,8.53
2019-03-12T15:54:51.234Z,8.53
2019-03-12T15:57:29.735Z,8.23
2019-03-12T16:00:07.951Z,9.50
2019-03-12T16:02:42.022Z,10.30
2019-03-12T16:05:18.175Z,10.13
2019-03-12T16:07:54.128Z,9.00
2019-03-12T16:10:28.639Z,9.17
2019-03-12T16:13:03.319Z,10.60
2019-03-12T16:15:37.922Z,14.57
2019-03-12T16:18:14.591Z,11.47
2019-03-12T16:20:49.034Z,10.67
2019-03-12T16:23:24.023Z,9.23
2019-03-12T16:25:59.082Z,9.50
2019-03-12T16:28:42.786Z,10.90
2019-03-12T16:31:26.874Z,9.47
2019-03-12T16:34:00.692Z,9.63
2019-03-12T16:36:36.786Z,7.87
2019-03-12T16:39:12.333Z,7.77
2019-03-12T16:41:47.823Z,6.23
2019-03-12T16:44:23.627Z,5.63
2019-03-12T16:46:59.992Z,4.23
2019-03-12T16:49:36.746Z,4.33
2019-03-12T16:52:11.123Z,4.63
2019-03-12T16:54:46.543Z,4.37
2019-03-12T16:57:23.956Z,3.30
2019-03-12T17:00:08.204Z,4.63
2019-03-12T17:02:39.312Z,4.87
2019-03-12T17:05:14.025Z,4.73
2019-03-12T17:07:53.103Z,5.47
2019-03-12T17:10:29.993Z,3.50
2019-03-12T17:13:04.198Z,4.40
2019-03-12T17:15:43.577Z,4.37
2019-03-12T17:18:17.859Z,4.73
2019-03-12T17:20:55.131Z,4.77
2019-03-12T17:23:30.953Z,4.47
2019-03-12T17:26:09.731Z,4.53
2019-03-12T17:28:45.173Z,5.27
2019-03-12T17:31:22.714Z,5.67
2019-03-12T17:33:57.660Z,6.43
2019-03-12T17:36:32.627Z,4.93
2019-03-12T17:39:08.735Z,5.63
2019-03-12T17:41:44.071Z,9.03
2019-03-12T17:44:20.989Z,5.93
2019-03-12T17:46:55.245Z,4.53
2019-03-12T17:49:38.253Z,4.10
2019-03-12T17:52:16.256Z,4.70
2019-03-12T17:54:52.348Z,4.43
2019-03-12T17:57:26.314Z,5.47
2019-03-12T18:00:01.485Z,5.50
2019-03-12T18:02:42.584Z,4.93
2019-03-12T18:05:15.049Z,5.43
2019-03-12T18:07:53.170Z,4.93
2019-03-12T18:10:29.317Z,4.67
2019-03-12T18:13:04.935Z,6.73
2019-03-12T18:15:41.116Z,7.23
2019-03-12T18:18:17.435Z,7.10
2019-03-12T18:20:51.398Z,4.33
2019-03-12T18:23:26.633Z,5.13
2019-03-12T18:26:03.905Z,3.20
2019-03-12T18:28:43.660Z,5.40
2019-03-12T18:31:20.291Z,8.33
2019-03-12T18:33:58.834Z,4.47
2019-03-12T18:36:34.267Z,5.30
2019-03-12T18:39:12.893Z,4.53
2019-03-12T18:41:48.477Z,4.10
2019-03-12T18:44:27.094Z,4.40
2019-03-12T18:47:01.752Z,3.77
2019-03-12T18:49:35.394Z,4.90
2019-03-12T18:52:09.942Z,3.37
2019-03-12T18:54:43.742Z,5.03
2019-03-12T18:57:18.988Z,3.50
2019-03-12T18:59:53.920Z,2.67
2019-03-12T19:02:30.698Z,3.47
2019-03-12T19:05:06.133Z,3.07
2019-03-12T19:07:45.446Z,3.10
2019-03-12T19:10:21.523Z,2.63
2019-03-12T19:12:59.700Z,2.97
2019-03-12T19:15:34.263Z,4.63
2019-03-12T19:18:09.880Z,2.70
2019-03-12T19:20:45.305Z,2.93
2019-03-12T19:23:19.238Z,4.43
2019-03-12T19:25:55.766Z,4.67
2019-03-12T19:28:32.453Z,2.77
2019-03-12T19:31:28.616Z,2.80
2019-03-12T19:34:09.196Z,3.43
2019-03-12T19:36:44.272Z,4.07
2019-03-12T19:39:20.623Z,4.00
2019-03-12T19:41:56.854Z,3.63
2019-03-12T19:44:34.352Z,3.53
2019-03-12T19:47:08.844Z,4.00
2019-03-12T19:49:44.558Z,3.63
2019-03-12T19:52:26.848Z,5.67
2019-03-12T19:55:02.190Z,4.30
2019-03-12T19:57:38.655Z,3.37
2019-03-12T20:00:16.153Z,3.13
2019-03-12T20:02:55.212Z,2.93
2019-03-12T20:05:30.035Z,3.20
2019-03-12T20:08:05.695Z,3.17
2019-03-12T20:11:23.550Z,2.93
2019-03-12T20:14:43.098Z,2.27
2019-03-12T20:18:00.081Z,2.47
2019-03-12T20:21:47.225Z,2.13
2019-03-12T20:25:17.236Z,2.40
2019-03-12T20:28:27.842Z,2.77
2019-03-12T20:31:37.265Z,1.70
2019-03-12T20:35:04.982Z,1.40
2019-03-12T20:38:31.085Z,2.10
2019-03-12T20:41:49.181Z,1.30
2019-03-12T20:45:17.578Z,1.27
2019-03-12T20:48:48.261Z,1.33
2019-03-12T20:52:10.342Z,1.70
2019-03-12T20:55:29.552Z,2.07
2019-03-12T20:58:46.368Z,3.23
2019-03-12T21:02:14.051Z,1.87
2019-03-12T21:05:40.494Z,1.37
2019-03-12T21:09:03.012Z,4.50
2019-03-12T21:12:26.617Z,2.90
2019-03-12T21:15:45.101Z,1.47
2019-03-12T21:19:28.344Z,1.60
2019-03-12T21:22:58.748Z,1.20
2019-03-12T21:26:28.356Z,1.90
2019-03-12T21:30:04.941Z,1.50
2019-03-12T21:32:59.171Z,1.70
2019-03-12T21:35:36.223Z,1.00
2019-03-12T21:38:21.310Z,2.50
2019-03-12T21:41:09.975Z,2.30
2019-03-12T21:43:49.326Z,0.80
2019-03-12T21:46:28.684Z,1.60
2019-03-12T21:49:06.135Z,0.93
2019-03-12T21:51:44.030Z,1.17
2019-03-12T21:54:27.164Z,1.70
2019-03-12T21:57:07.283Z,1.83
2019-03-12T21:59:48.164Z,1.23
2019-03-12T22:02:30.451Z,0.70
2019-03-12T22:05:15.381Z,1.33
2019-03-12T22:14:19.484Z,1.80
2019-03-12T22:17:16.604Z,1.10
2019-03-12T22:19:58.630Z,0.70
2019-03-12T22:22:53.270Z,0.97
2019-03-12T22:25:29.887Z,2.43
2019-03-12T22:31:08.330Z,1.87
2019-03-12T22:33:46.108Z,3.80
2019-03-12T22:36:33.223Z,1.33
2019-03-12T22:39:21.904Z,1.30
2019-03-12T22:42:03.294Z,1.73
2019-03-12T22:44:45.307Z,1.10
2019-03-12T22:47:26.268Z,2.00
2019-03-12T22:50:02.845Z,1.07
2019-03-12T22:52:47.280Z,1.53
2019-03-12T22:55:32.998Z,1.27
2019-03-12T22:58:07.997Z,1.23
2019-03-12T23:00:54.412Z,1.10
2019-03-12T23:03:35.386Z,1.00
2019-03-12T23:06:19.417Z,1.77
2019-03-12T23:09:05.947Z,1.10
2019-03-12T23:20:24.308Z,1.70
2019-03-12T23:35:03.634Z,1.60
2019-03-12T23:55:25.974Z,1.57
